Sussex, Canada
Current Conditions -  °F | °C
As of 6:00 PM on Tuesday 21 Oct 2014 (Local Time) from CYSJ Reporting Station
Overcast Overcast  
Wind Chill: 50°   Ceiling: 12000
Heat Index: 50°   Visibility: 15mi
Dew Point: 39°   Wind: 5mph
Humidity: 66%   Direction: 30°NNE
Pressure: 30.17"   Gusts: NA
Location:  45.72°N, 65.52°W
Report Text: CYSJ 212100Z 03004KT 15SM FEW080 BKN120 OVC260 10/04 A3017 RMK AC2AC5CI1 SLP221
Loading
Personal Weather Stations






























Interactive Weather Map
Tropical Storm Tracking
New forecast layout! Learn more

10-Day Weather Forecast

Advertisements
Track Severe Weather on mobile